createdAt,value
2019-02-15T17:24:15.705Z,7.90
2019-02-15T17:26:49.361Z,8.00
2019-02-15T17:29:23.200Z,8.20
2019-02-15T17:31:56.780Z,8.40
2019-02-15T17:34:30.507Z,8.50
2019-02-15T17:37:04.159Z,8.60
2019-02-15T17:39:37.732Z,8.60
2019-02-15T17:42:12.188Z,8.30
2019-02-15T17:44:45.820Z,8.30
2019-02-15T17:47:19.506Z,8.20
2019-02-15T17:49:53.184Z,8.10
2019-02-15T17:52:26.819Z,8.00
2019-02-15T17:55:00.541Z,8.00
2019-02-15T17:57:35.021Z,7.80
2019-02-15T18:00:10.096Z,7.80
2019-02-15T18:02:43.710Z,7.60
2019-02-15T18:05:17.566Z,7.40
2019-02-15T18:07:51.321Z,7.60
2019-02-15T18:10:25.857Z,8.10
2019-02-15T18:12:59.605Z,8.20
2019-02-15T18:15:33.442Z,8.30
2019-02-15T18:18:07.342Z,8.50
2019-02-15T18:20:41.022Z,8.50
2019-02-15T18:23:15.491Z,9.00
2019-02-15T18:25:50.020Z,9.10
2019-02-15T18:28:23.712Z,9.00
2019-02-15T18:30:57.424Z,9.10
2019-02-15T18:33:31.291Z,9.00
2019-02-15T18:36:05.727Z,9.10
2019-02-15T18:38:40.781Z,9.00
2019-02-15T18:41:13.855Z,9.10
2019-02-15T18:43:47.878Z,9.00
2019-02-15T18:46:21.517Z,9.00
2019-02-15T18:48:55.205Z,9.00
2019-02-15T18:51:29.085Z,9.10
2019-02-15T18:54:02.700Z,9.20
2019-02-15T18:56:37.430Z,9.10
2019-02-15T18:59:11.013Z,9.00
2019-02-15T19:01:44.824Z,9.00
2019-02-15T19:04:18.573Z,9.10
2019-02-15T19:06:52.365Z,9.00
2019-02-15T19:09:26.012Z,9.10
2019-02-15T19:12:00.477Z,8.90
2019-02-15T19:14:35.098Z,8.90
2019-02-15T19:17:08.829Z,8.90
2019-02-15T19:19:42.637Z,8.90
2019-02-15T19:22:16.214Z,8.80
2019-02-15T19:24:49.906Z,8.70
2019-02-15T19:27:23.803Z,8.40
2019-02-15T19:29:57.586Z,8.20
2019-02-15T19:32:31.270Z,8.10
2019-02-15T19:35:04.959Z,8.00
2019-02-15T19:37:38.657Z,7.90
2019-02-15T19:40:13.155Z,7.40
2019-02-15T19:42:46.901Z,7.40
2019-02-15T19:45:20.685Z,7.20
2019-02-15T19:47:54.397Z,7.20
2019-02-15T19:50:28.893Z,7.10
2019-02-15T19:53:03.495Z,7.00
2019-02-15T19:55:37.176Z,7.00
2019-02-15T19:58:11.748Z,6.90
2019-02-15T20:00:45.477Z,6.90
2019-02-15T20:03:19.329Z,6.90
2019-02-15T20:05:53.107Z,6.60
2019-02-15T20:08:27.705Z,6.40
2019-02-15T20:11:01.537Z,6.40
2019-02-15T20:13:35.200Z,6.40
2019-02-15T20:16:09.093Z,6.40
2019-02-15T20:18:42.910Z,6.30
2019-02-15T20:21:17.536Z,6.20
2019-02-15T20:23:51.276Z,6.20
2019-02-15T20:26:25.068Z,6.30
2019-02-15T20:28:58.729Z,6.20
2019-02-15T20:31:32.494Z,6.30
2019-02-15T20:34:06.384Z,6.30
2019-02-15T20:36:41.045Z,6.20
2019-02-15T20:39:14.717Z,6.20
2019-02-15T20:41:48.479Z,6.10
2019-02-15T20:44:22.936Z,6.00
2019-02-15T20:46:56.649Z,6.00
2019-02-15T20:49:30.316Z,5.90
2019-02-15T20:52:04.017Z,5.80
2019-02-15T20:54:37.897Z,5.90
2019-02-15T20:57:12.493Z,5.90
2019-02-15T20:59:46.215Z,5.80
2019-02-15T21:02:20.702Z,5.80
2019-02-15T21:04:54.390Z,5.80
2019-02-15T21:07:28.105Z,5.80
2019-02-15T21:10:02.736Z,5.70
2019-02-15T21:12:36.446Z,5.70
2019-02-15T21:15:10.184Z,5.60
2019-02-15T21:17:43.888Z,5.70
2019-02-15T21:20:17.587Z,5.70
2019-02-15T21:22:51.469Z,5.70
2019-02-15T21:25:27.692Z,5.50
2019-02-15T21:27:59.594Z,5.50
2019-02-15T21:30:33.317Z,5.60
2019-02-15T21:33:08.002Z,5.50
2019-02-15T21:35:41.752Z,5.50
2019-02-15T21:38:15.557Z,5.40
2019-02-15T21:40:49.364Z,5.40
2019-02-15T21:43:23.190Z,5.40
2019-02-15T21:45:56.747Z,5.50
2019-02-15T21:48:31.347Z,5.30
2019-02-15T21:51:05.201Z,5.30
2019-02-15T21:53:38.887Z,5.20
2019-02-15T21:56:12.708Z,5.20
2019-02-15T21:58:46.585Z,5.30
2019-02-15T22:01:21.117Z,5.10
2019-02-15T22:03:55.652Z,5.10
2019-02-15T22:06:29.459Z,5.10
2019-02-15T22:09:03.967Z,5.00
2019-02-15T22:11:37.676Z,4.90
2019-02-15T22:14:11.545Z,4.90
2019-02-15T22:16:45.295Z,4.90
2019-02-15T22:19:19.057Z,4.70
2019-02-15T22:21:52.758Z,4.80
2019-02-15T22:24:27.420Z,4.70
2019-02-15T22:27:01.113Z,4.70
2019-02-15T22:29:34.813Z,4.60
2019-02-15T22:32:08.597Z,4.60
2019-02-15T22:34:42.370Z,4.70
2019-02-15T22:37:16.857Z,4.50
2019-02-15T22:39:50.589Z,4.50
2019-02-15T22:42:25.000Z,4.60
2019-02-15T22:44:58.729Z,4.50
2019-02-15T22:47:32.489Z,4.50
2019-02-15T22:50:06.245Z,4.40
2019-02-15T22:52:40.684Z,4.40
2019-02-15T22:55:14.553Z,4.40
2019-02-15T22:57:48.305Z,4.40
2019-02-15T23:00:36.233Z,4.20
2019-02-15T23:03:11.933Z,4.20
2019-02-15T23:05:45.704Z,4.20
2019-02-15T23:08:19.608Z,4.30
2019-02-15T23:10:53.501Z,4.10
2019-02-15T23:13:27.990Z,4.00
2019-02-15T23:16:01.679Z,3.90
2019-02-15T23:18:35.333Z,4.00
2019-02-15T23:21:09.062Z,4.10
2019-02-15T23:23:42.906Z,3.90
2019-02-15T23:26:16.744Z,4.00
2019-02-15T23:28:51.424Z,3.80
2019-02-15T23:31:25.125Z,3.80
2019-02-15T23:33:58.977Z,3.60
2019-02-15T23:36:32.709Z,3.50
2019-02-15T23:39:06.593Z,3.60
2019-02-15T23:41:40.149Z,3.60
2019-02-15T23:44:14.066Z,3.60
2019-02-15T23:46:48.551Z,3.50
2019-02-15T23:49:22.313Z,3.50
2019-02-15T23:51:56.805Z,3.50
2019-02-15T23:54:30.614Z,3.50
2019-02-15T23:57:05.121Z,3.40
2019-02-15T23:59:39.664Z,3.40
